WEATHER/FLIGHT PLANNING

Hattiesburg Radar

 

 

 

 

Weather Links

Flight Planning Links

 

METAR

2017/08/21 12:53 KHBG 211253Z AUTO 00000KT 8SM CLR 26/24 A3012 RMK AO2 SLP196 T02560244

TAF

2017/08/21 12:39 TAF KHBG 211135Z 2112/2212 00000KT 5SM BR FEW250 FM211400 05003KT P6SM FEW250 FM211800 08005KT P6SM VCTS FEW050CB SCT250 FM220000 15003KT P6SM FEW050 SCT090 FM221000 00000KT 5SM BR FEW130 SCT250